sensor_id;sensor_type;location;lat;lon;timestamp;P1;durP1;ratioP1;P2;durP2;ratioP2
56435;SDS011;42335;44.872;20.658;2023-08-24T00:01:44;24.02;;;12.98;;
56435;SDS011;42335;44.872;20.658;2023-08-24T00:04:10;20.48;;;13.38;;
56435;SDS011;42335;44.872;20.658;2023-08-24T00:06:36;19.13;;;12.73;;
56435;SDS011;42335;44.872;20.658;2023-08-24T00:09:03;20.33;;;11.85;;
56435;SDS011;42335;44.872;20.658;2023-08-24T00:11:30;20.73;;;11.70;;
56435;SDS011;42335;44.872;20.658;2023-08-24T00:13:56;20.38;;;11.90;;
56435;SDS011;42335;44.872;20.658;2023-08-24T00:16:22;20.83;;;12.18;;
56435;SDS011;42335;44.872;20.658;2023-08-24T00:18:49;16.10;;;11.43;;
56435;SDS011;42335;44.872;20.658;2023-08-24T00:21:15;18.65;;;11.57;;
56435;SDS011;42335;44.872;20.658;2023-08-24T00:23:48;18.58;;;12.02;;
56435;SDS011;42335;44.872;20.658;2023-08-24T00:26:14;22.88;;;11.70;;
56435;SDS011;42335;44.872;20.658;2023-08-24T00:28:43;13.38;;;11.25;;
56435;SDS011;42335;44.872;20.658;2023-08-24T00:31:10;21.45;;;11.63;;
56435;SDS011;42335;44.872;20.658;2023-08-24T00:33:36;17.05;;;11.73;;
56435;SDS011;42335;44.872;20.658;2023-08-24T00:36:03;18.67;;;10.40;;
56435;SDS011;42335;44.872;20.658;2023-08-24T00:38:29;17.98;;;12.80;;
56435;SDS011;42335;44.872;20.658;2023-08-24T00:40:55;19.40;;;11.48;;
56435;SDS011;42335;44.872;20.658;2023-08-24T00:43:23;22.50;;;11.95;;
56435;SDS011;42335;44.872;20.658;2023-08-24T00:45:50;19.55;;;12.35;;
56435;SDS011;42335;44.872;20.658;2023-08-24T00:48:17;19.10;;;11.80;;
56435;SDS011;42335;44.872;20.658;2023-08-24T00:50:43;15.13;;;11.18;;
56435;SDS011;42335;44.872;20.658;2023-08-24T00:53:09;18.35;;;11.18;;
56435;SDS011;42335;44.872;20.658;2023-08-24T00:55:35;15.82;;;11.38;;
56435;SDS011;42335;44.872;20.658;2023-08-24T00:58:02;23.48;;;14.57;;
56435;SDS011;42335;44.872;20.658;2023-08-24T01:00:28;18.58;;;13.15;;
56435;SDS011;42335;44.872;20.658;2023-08-24T01:02:54;22.17;;;11.93;;
56435;SDS011;42335;44.872;20.658;2023-08-24T01:05:20;16.02;;;12.15;;
56435;SDS011;42335;44.872;20.658;2023-08-24T01:07:46;20.58;;;12.98;;
56435;SDS011;42335;44.872;20.658;2023-08-24T01:10:13;21.98;;;12.38;;
56435;SDS011;42335;44.872;20.658;2023-08-24T01:17:42;18.80;;;13.07;;
56435;SDS011;42335;44.872;20.658;2023-08-24T01:20:09;21.27;;;12.70;;
56435;SDS011;42335;44.872;20.658;2023-08-24T01:25:14;13.55;;;11.32;;
56435;SDS011;42335;44.872;20.658;2023-08-24T01:27:42;15.48;;;12.68;;
56435;SDS011;42335;44.872;20.658;2023-08-24T01:30:08;14.80;;;12.73;;
56435;SDS011;42335;44.872;20.658;2023-08-24T01:32:35;22.52;;;13.38;;
56435;SDS011;42335;44.872;20.658;2023-08-24T01:35:02;22.65;;;13.38;;
56435;SDS011;42335;44.872;20.658;2023-08-24T01:37:29;21.63;;;13.88;;
56435;SDS011;42335;44.872;20.658;2023-08-24T01:40:00;18.27;;;14.52;;
56435;SDS011;42335;44.872;20.658;2023-08-24T01:42:31;18.15;;;14.13;;
56435;SDS011;42335;44.872;20.658;2023-08-24T01:44:57;16.20;;;13.50;;
56435;SDS011;42335;44.872;20.658;2023-08-24T01:47:25;23.75;;;14.10;;
56435;SDS011;42335;44.872;20.658;2023-08-24T01:49:52;32.88;;;14.35;;
56435;SDS011;42335;44.872;20.658;2023-08-24T01:52:18;22.45;;;14.60;;
56435;SDS011;42335;44.872;20.658;2023-08-24T01:54:44;23.17;;;14.65;;
56435;SDS011;42335;44.872;20.658;2023-08-24T01:57:10;24.00;;;15.43;;
56435;SDS011;42335;44.872;20.658;2023-08-24T01:59:36;22.15;;;14.35;;
56435;SDS011;42335;44.872;20.658;2023-08-24T02:02:02;22.77;;;13.45;;
56435;SDS011;42335;44.872;20.658;2023-08-24T02:04:28;24.33;;;14.63;;
56435;SDS011;42335;44.872;20.658;2023-08-24T02:06:55;22.27;;;14.88;;
56435;SDS011;42335;44.872;20.658;2023-08-24T02:09:21;18.67;;;14.32;;
56435;SDS011;42335;44.872;20.658;2023-08-24T02:11:47;23.33;;;15.65;;
56435;SDS011;42335;44.872;20.658;2023-08-24T02:14:13;25.48;;;15.10;;
56435;SDS011;42335;44.872;20.658;2023-08-24T02:16:39;27.42;;;15.40;;
56435;SDS011;42335;44.872;20.658;2023-08-24T02:19:05;30.02;;;15.30;;
56435;SDS011;42335;44.872;20.658;2023-08-24T02:21:31;20.23;;;14.80;;
56435;SDS011;42335;44.872;20.658;2023-08-24T02:23:57;22.27;;;13.88;;
56435;SDS011;42335;44.872;20.658;2023-08-24T02:26:23;23.90;;;14.80;;
56435;SDS011;42335;44.872;20.658;2023-08-24T02:28:49;24.48;;;15.60;;
56435;SDS011;42335;44.872;20.658;2023-08-24T02:31:15;20.15;;;14.98;;
56435;SDS011;42335;44.872;20.658;2023-08-24T02:33:41;22.33;;;15.10;;
56435;SDS011;42335;44.872;20.658;2023-08-24T02:36:07;23.15;;;14.48;;
56435;SDS011;42335;44.872;20.658;2023-08-24T02:38:33;19.80;;;14.63;;
56435;SDS011;42335;44.872;20.658;2023-08-24T02:41:03;22.77;;;16.02;;
56435;SDS011;42335;44.872;20.658;2023-08-24T02:43:29;21.65;;;14.20;;
56435;SDS011;42335;44.872;20.658;2023-08-24T02:45:59;23.83;;;15.05;;
56435;SDS011;42335;44.872;20.658;2023-08-24T02:48:26;29.98;;;17.02;;
56435;SDS011;42335;44.872;20.658;2023-08-24T02:50:52;23.13;;;15.20;;
56435;SDS011;42335;44.872;20.658;2023-08-24T02:53:18;25.42;;;16.10;;
56435;SDS011;42335;44.872;20.658;2023-08-24T02:55:44;28.00;;;19.25;;
56435;SDS011;42335;44.872;20.658;2023-08-24T02:58:10;33.42;;;22.30;;
56435;SDS011;42335;44.872;20.658;2023-08-24T03:00:39;43.25;;;30.00;;
56435;SDS011;42335;44.872;20.658;2023-08-24T03:03:05;46.00;;;32.08;;
56435;SDS011;42335;44.872;20.658;2023-08-24T03:05:32;44.60;;;31.40;;
56435;SDS011;42335;44.872;20.658;2023-08-24T03:07:58;42.30;;;33.08;;
56435;SDS011;42335;44.872;20.658;2023-08-24T03:10:24;44.03;;;28.48;;
56435;SDS011;42335;44.872;20.658;2023-08-24T03:12:50;47.75;;;30.52;;
56435;SDS011;42335;44.872;20.658;2023-08-24T03:15:16;46.08;;;30.58;;
56435;SDS011;42335;44.872;20.658;2023-08-24T03:17:42;43.38;;;29.77;;
56435;SDS011;42335;44.872;20.658;2023-08-24T03:20:09;40.13;;;28.85;;
56435;SDS011;42335;44.872;20.658;2023-08-24T03:22:36;47.20;;;28.02;;
56435;SDS011;42335;44.872;20.658;2023-08-24T03:25:02;28.52;;;23.00;;
56435;SDS011;42335;44.872;20.658;2023-08-24T03:27:28;32.35;;;22.00;;
56435;SDS011;42335;44.872;20.658;2023-08-24T03:29:54;26.23;;;21.10;;
56435;SDS011;42335;44.872;20.658;2023-08-24T03:32:20;25.83;;;22.10;;
56435;SDS011;42335;44.872;20.658;2023-08-24T03:34:46;27.92;;;21.88;;
56435;SDS011;42335;44.872;20.658;2023-08-24T03:37:12;28.40;;;21.75;;
56435;SDS011;42335;44.872;20.658;2023-08-24T03:39:38;29.98;;;22.00;;
56435;SDS011;42335;44.872;20.658;2023-08-24T03:42:05;29.30;;;22.23;;
56435;SDS011;42335;44.872;20.658;2023-08-24T03:44:31;27.17;;;21.38;;
56435;SDS011;42335;44.872;20.658;2023-08-24T03:46:57;28.80;;;22.02;;
56435;SDS011;42335;44.872;20.658;2023-08-24T03:49:23;30.33;;;21.30;;
56435;SDS011;42335;44.872;20.658;2023-08-24T03:51:51;28.52;;;22.05;;
56435;SDS011;42335;44.872;20.658;2023-08-24T03:54:17;27.80;;;21.55;;
56435;SDS011;42335;44.872;20.658;2023-08-24T03:56:44;34.10;;;22.77;;
56435;SDS011;42335;44.872;20.658;2023-08-24T03:59:10;36.85;;;23.63;;
56435;SDS011;42335;44.872;20.658;2023-08-24T04:01:36;30.13;;;24.02;;
56435;SDS011;42335;44.872;20.658;2023-08-24T04:04:02;28.52;;;22.60;;
56435;SDS011;42335;44.872;20.658;2023-08-24T04:06:28;29.40;;;23.20;;
56435;SDS011;42335;44.872;20.658;2023-08-24T04:08:54;36.83;;;22.65;;
56435;SDS011;42335;44.872;20.658;2023-08-24T04:11:20;239.85;;;180.25;;
56435;SDS011;42335;44.872;20.658;2023-08-24T04:13:46;158.25;;;135.75;;
56435;SDS011;42335;44.872;20.658;2023-08-24T04:16:12;60.65;;;49.88;;
56435;SDS011;42335;44.872;20.658;2023-08-24T04:18:39;118.15;;;103.85;;
56435;SDS011;42335;44.872;20.658;2023-08-24T04:21:05;33.63;;;26.70;;
56435;SDS011;42335;44.872;20.658;2023-08-24T04:23:31;37.05;;;25.38;;
56435;SDS011;42335;44.872;20.658;2023-08-24T04:25:57;34.90;;;24.58;;
56435;SDS011;42335;44.872;20.658;2023-08-24T04:28:24;28.88;;;24.33;;
56435;SDS011;42335;44.872;20.658;2023-08-24T04:30:53;30.42;;;23.75;;
56435;SDS011;42335;44.872;20.658;2023-08-24T04:33:19;36.75;;;24.58;;
56435;SDS011;42335;44.872;20.658;2023-08-24T04:35:48;41.63;;;24.00;;
56435;SDS011;42335;44.872;20.658;2023-08-24T04:38:15;34.55;;;22.33;;
56435;SDS011;42335;44.872;20.658;2023-08-24T04:40:48;34.42;;;23.23;;
56435;SDS011;42335;44.872;20.658;2023-08-24T04:43:16;31.70;;;23.33;;
56435;SDS011;42335;44.872;20.658;2023-08-24T04:45:42;28.52;;;21.45;;
56435;SDS011;42335;44.872;20.658;2023-08-24T04:48:08;30.52;;;22.52;;
56435;SDS011;42335;44.872;20.658;2023-08-24T04:50:34;32.70;;;21.95;;
56435;SDS011;42335;44.872;20.658;2023-08-24T04:53:00;27.48;;;22.88;;
56435;SDS011;42335;44.872;20.658;2023-08-24T04:55:26;27.13;;;22.45;;
56435;SDS011;42335;44.872;20.658;2023-08-24T04:57:52;55.42;;;22.42;;
56435;SDS011;42335;44.872;20.658;2023-08-24T05:00:18;29.80;;;22.85;;
56435;SDS011;42335;44.872;20.658;2023-08-24T05:02:44;31.77;;;22.60;;
56435;SDS011;42335;44.872;20.658;2023-08-24T05:05:10;59.55;;;46.80;;
56435;SDS011;42335;44.872;20.658;2023-08-24T05:07:39;43.38;;;32.63;;
56435;SDS011;42335;44.872;20.658;2023-08-24T05:10:05;73.70;;;55.95;;
56435;SDS011;42335;44.872;20.658;2023-08-24T05:12:31;91.03;;;73.25;;
56435;SDS011;42335;44.872;20.658;2023-08-24T05:15:00;31.17;;;22.50;;
56435;SDS011;42335;44.872;20.658;2023-08-24T05:17:26;24.48;;;21.35;;
56435;SDS011;42335;44.872;20.658;2023-08-24T05:19:55;39.28;;;21.65;;
56435;SDS011;42335;44.872;20.658;2023-08-24T05:22:22;31.25;;;23.13;;
56435;SDS011;42335;44.872;20.658;2023-08-24T05:24:48;32.20;;;21.20;;
56435;SDS011;42335;44.872;20.658;2023-08-24T05:27:14;34.55;;;19.80;;
56435;SDS011;42335;44.872;20.658;2023-08-24T05:29:41;29.33;;;20.35;;
56435;SDS011;42335;44.872;20.658;2023-08-24T05:32:07;82.90;;;60.42;;
56435;SDS011;42335;44.872;20.658;2023-08-24T05:34:33;32.50;;;27.40;;
56435;SDS011;42335;44.872;20.658;2023-08-24T05:36:59;22.98;;;19.25;;
56435;SDS011;42335;44.872;20.658;2023-08-24T05:39:25;21.08;;;18.10;;
56435;SDS011;42335;44.872;20.658;2023-08-24T05:41:51;33.95;;;20.27;;
56435;SDS011;42335;44.872;20.658;2023-08-24T05:44:18;28.10;;;17.70;;
56435;SDS011;42335;44.872;20.658;2023-08-24T05:46:44;22.98;;;17.60;;
56435;SDS011;42335;44.872;20.658;2023-08-24T05:49:10;28.73;;;16.02;;
56435;SDS011;42335;44.872;20.658;2023-08-24T05:51:36;29.13;;;18.13;;
56435;SDS011;42335;44.872;20.658;2023-08-24T05:54:02;28.55;;;17.27;;
56435;SDS011;42335;44.872;20.658;2023-08-24T05:56:28;30.55;;;17.42;;
56435;SDS011;42335;44.872;20.658;2023-08-24T05:58:55;28.58;;;17.15;;
56435;SDS011;42335;44.872;20.658;2023-08-24T06:01:21;19.55;;;16.98;;
56435;SDS011;42335;44.872;20.658;2023-08-24T06:03:47;22.23;;;15.82;;
56435;SDS011;42335;44.872;20.658;2023-08-24T06:06:13;32.15;;;15.35;;
56435;SDS011;42335;44.872;20.658;2023-08-24T06:08:39;32.45;;;15.85;;
56435;SDS011;42335;44.872;20.658;2023-08-24T06:11:05;27.42;;;16.23;;
56435;SDS011;42335;44.872;20.658;2023-08-24T06:13:31;27.23;;;16.60;;
56435;SDS011;42335;44.872;20.658;2023-08-24T06:15:58;21.52;;;14.10;;
56435;SDS011;42335;44.872;20.658;2023-08-24T06:18:24;24.25;;;14.38;;
56435;SDS011;42335;44.872;20.658;2023-08-24T06:20:50;24.05;;;14.82;;
56435;SDS011;42335;44.872;20.658;2023-08-24T06:23:16;17.63;;;13.38;;
56435;SDS011;42335;44.872;20.658;2023-08-24T06:25:43;15.95;;;14.23;;
56435;SDS011;42335;44.872;20.658;2023-08-24T06:28:10;23.67;;;15.57;;
56435;SDS011;42335;44.872;20.658;2023-08-24T06:30:39;23.40;;;14.70;;
56435;SDS011;42335;44.872;20.658;2023-08-24T06:33:06;22.95;;;15.10;;
56435;SDS011;42335;44.872;20.658;2023-08-24T06:35:35;21.45;;;14.45;;
56435;SDS011;42335;44.872;20.658;2023-08-24T06:38:02;21.55;;;14.27;;
56435;SDS011;42335;44.872;20.658;2023-08-24T06:40:28;27.05;;;13.95;;
56435;SDS011;42335;44.872;20.658;2023-08-24T06:42:54;24.17;;;13.32;;
56435;SDS011;42335;44.872;20.658;2023-08-24T06:45:20;17.45;;;13.60;;
56435;SDS011;42335;44.872;20.658;2023-08-24T06:47:46;22.10;;;12.85;;
56435;SDS011;42335;44.872;20.658;2023-08-24T06:50:12;24.63;;;13.23;;
56435;SDS011;42335;44.872;20.658;2023-08-24T06:52:38;16.77;;;12.60;;
56435;SDS011;42335;44.872;20.658;2023-08-24T06:55:04;19.55;;;12.63;;
56435;SDS011;42335;44.872;20.658;2023-08-24T06:57:31;17.20;;;11.68;;
56435;SDS011;42335;44.872;20.658;2023-08-24T06:59:57;23.85;;;10.95;;
56435;SDS011;42335;44.872;20.658;2023-08-24T07:02:23;23.08;;;12.55;;
56435;SDS011;42335;44.872;20.658;2023-08-24T07:04:49;22.02;;;12.80;;
56435;SDS011;42335;44.872;20.658;2023-08-24T07:07:15;17.88;;;12.48;;
56435;SDS011;42335;44.872;20.658;2023-08-24T07:09:41;23.95;;;11.55;;
56435;SDS011;42335;44.872;20.658;2023-08-24T07:12:07;19.80;;;10.30;;
56435;SDS011;42335;44.872;20.658;2023-08-24T07:14:35;19.15;;;12.32;;
56435;SDS011;42335;44.872;20.658;2023-08-24T07:17:01;25.38;;;10.38;;
56435;SDS011;42335;44.872;20.658;2023-08-24T07:19:28;21.83;;;10.43;;
56435;SDS011;42335;44.872;20.658;2023-08-24T07:21:54;16.88;;;10.82;;
56435;SDS011;42335;44.872;20.658;2023-08-24T07:24:20;13.85;;;10.27;;
56435;SDS011;42335;44.872;20.658;2023-08-24T07:26:48;15.68;;;10.27;;
56435;SDS011;42335;44.872;20.658;2023-08-24T07:29:14;18.35;;;10.93;;
56435;SDS011;42335;44.872;20.658;2023-08-24T07:31:40;12.63;;;10.02;;
56435;SDS011;42335;44.872;20.658;2023-08-24T07:34:06;15.20;;;10.95;;
56435;SDS011;42335;44.872;20.658;2023-08-24T07:36:32;16.20;;;10.73;;
56435;SDS011;42335;44.872;20.658;2023-08-24T07:38:58;19.05;;;10.15;;
56435;SDS011;42335;44.872;20.658;2023-08-24T07:41:24;23.73;;;11.65;;
56435;SDS011;42335;44.872;20.658;2023-08-24T07:43:50;22.40;;;8.85;;
56435;SDS011;42335;44.872;20.658;2023-08-24T07:46:16;17.33;;;9.48;;
56435;SDS011;42335;44.872;20.658;2023-08-24T07:48:42;20.85;;;9.65;;
56435;SDS011;42335;44.872;20.658;2023-08-24T07:51:08;17.15;;;9.60;;
56435;SDS011;42335;44.872;20.658;2023-08-24T07:53:34;12.18;;;8.27;;
56435;SDS011;42335;44.872;20.658;2023-08-24T07:56:00;19.70;;;9.23;;
56435;SDS011;42335;44.872;20.658;2023-08-24T07:58:27;13.65;;;9.13;;
56435;SDS011;42335;44.872;20.658;2023-08-24T08:00:53;19.83;;;11.00;;
56435;SDS011;42335;44.872;20.658;2023-08-24T08:03:19;11.55;;;8.68;;
56435;SDS011;42335;44.872;20.658;2023-08-24T08:05:46;13.90;;;9.45;;
56435;SDS011;42335;44.872;20.658;2023-08-24T08:08:15;21.95;;;9.13;;
56435;SDS011;42335;44.872;20.658;2023-08-24T08:10:42;18.02;;;8.80;;
56435;SDS011;42335;44.872;20.658;2023-08-24T08:13:08;13.63;;;9.18;;
56435;SDS011;42335;44.872;20.658;2023-08-24T08:15:37;15.25;;;10.23;;
56435;SDS011;42335;44.872;20.658;2023-08-24T08:18:04;24.52;;;11.75;;
56435;SDS011;42335;44.872;20.658;2023-08-24T08:20:30;18.33;;;8.50;;
56435;SDS011;42335;44.872;20.658;2023-08-24T08:22:56;13.02;;;7.20;;
56435;SDS011;42335;44.872;20.658;2023-08-24T08:25:22;19.10;;;8.48;;
56435;SDS011;42335;44.872;20.658;2023-08-24T08:27:49;14.77;;;8.18;;
56435;SDS011;42335;44.872;20.658;2023-08-24T08:30:15;15.48;;;7.60;;
56435;SDS011;42335;44.872;20.658;2023-08-24T08:32:41;13.73;;;7.38;;
56435;SDS011;42335;44.872;20.658;2023-08-24T08:35:08;12.40;;;7.57;;
56435;SDS011;42335;44.872;20.658;2023-08-24T08:37:34;13.70;;;8.05;;
56435;SDS011;42335;44.872;20.658;2023-08-24T08:40:02;28.15;;;7.85;;
56435;SDS011;42335;44.872;20.658;2023-08-24T08:42:31;18.10;;;7.88;;
56435;SDS011;42335;44.872;20.658;2023-08-24T08:44:57;12.25;;;7.65;;
56435;SDS011;42335;44.872;20.658;2023-08-24T08:47:27;16.98;;;7.80;;
56435;SDS011;42335;44.872;20.658;2023-08-24T08:49:54;12.85;;;8.13;;
56435;SDS011;42335;44.872;20.658;2023-08-24T08:52:21;12.27;;;8.20;;
56435;SDS011;42335;44.872;20.658;2023-08-24T08:54:47;14.73;;;8.00;;
56435;SDS011;42335;44.872;20.658;2023-08-24T08:57:14;15.10;;;7.50;;
56435;SDS011;42335;44.872;20.658;2023-08-24T08:59:41;12.75;;;7.88;;
56435;SDS011;42335;44.872;20.658;2023-08-24T09:02:07;13.73;;;8.23;;
56435;SDS011;42335;44.872;20.658;2023-08-24T09:04:35;9.43;;;7.15;;
56435;SDS011;42335;44.872;20.658;2023-08-24T09:07:01;14.48;;;7.13;;
56435;SDS011;42335;44.872;20.658;2023-08-24T09:09:32;11.68;;;7.13;;
56435;SDS011;42335;44.872;20.658;2023-08-24T09:11:59;9.73;;;6.47;;
56435;SDS011;42335;44.872;20.658;2023-08-24T09:14:25;17.33;;;7.97;;
56435;SDS011;42335;44.872;20.658;2023-08-24T09:16:51;17.65;;;7.32;;
56435;SDS011;42335;44.872;20.658;2023-08-24T09:19:17;13.88;;;7.30;;
56435;SDS011;42335;44.872;20.658;2023-08-24T09:21:43;16.52;;;6.45;;
56435;SDS011;42335;44.872;20.658;2023-08-24T09:24:09;9.65;;;6.93;;
56435;SDS011;42335;44.872;20.658;2023-08-24T09:26:37;16.33;;;6.90;;
56435;SDS011;42335;44.872;20.658;2023-08-24T09:29:11;16.60;;;6.82;;
56435;SDS011;42335;44.872;20.658;2023-08-24T09:31:41;12.80;;;6.55;;
56435;SDS011;42335;44.872;20.658;2023-08-24T09:34:09;10.52;;;6.38;;
56435;SDS011;42335;44.872;20.658;2023-08-24T09:36:36;15.35;;;6.40;;
56435;SDS011;42335;44.872;20.658;2023-08-24T09:39:02;9.80;;;6.07;;
56435;SDS011;42335;44.872;20.658;2023-08-24T09:41:38;8.13;;;6.07;;
56435;SDS011;42335;44.872;20.658;2023-08-24T09:44:05;8.40;;;6.22;;
56435;SDS011;42335;44.872;20.658;2023-08-24T09:46:31;12.02;;;7.20;;
56435;SDS011;42335;44.872;20.658;2023-08-24T09:48:57;14.30;;;6.75;;
56435;SDS011;42335;44.872;20.658;2023-08-24T09:51:26;17.73;;;6.22;;
56435;SDS011;42335;44.872;20.658;2023-08-24T09:53:52;9.23;;;6.05;;
56435;SDS011;42335;44.872;20.658;2023-08-24T09:56:25;11.13;;;6.18;;
56435;SDS011;42335;44.872;20.658;2023-08-24T09:58:51;15.48;;;6.35;;
56435;SDS011;42335;44.872;20.658;2023-08-24T10:01:19;9.60;;;6.45;;
56435;SDS011;42335;44.872;20.658;2023-08-24T10:03:45;10.68;;;5.50;;
56435;SDS011;42335;44.872;20.658;2023-08-24T10:06:13;7.40;;;5.55;;
56435;SDS011;42335;44.872;20.658;2023-08-24T10:08:39;8.90;;;5.75;;
56435;SDS011;42335;44.872;20.658;2023-08-24T10:11:07;11.52;;;5.53;;
56435;SDS011;42335;44.872;20.658;2023-08-24T10:13:43;12.65;;;5.93;;
56435;SDS011;42335;44.872;20.658;2023-08-24T10:16:14;15.05;;;6.03;;
56435;SDS011;42335;44.872;20.658;2023-08-24T10:18:40;9.13;;;6.32;;
56435;SDS011;42335;44.872;20.658;2023-08-24T10:21:07;7.25;;;5.60;;
56435;SDS011;42335;44.872;20.658;2023-08-24T10:23:34;14.77;;;6.82;;
56435;SDS011;42335;44.872;20.658;2023-08-24T10:26:01;10.35;;;6.22;;
56435;SDS011;42335;44.872;20.658;2023-08-24T10:28:28;9.13;;;5.97;;
56435;SDS011;42335;44.872;20.658;2023-08-24T10:30:54;14.38;;;6.32;;
56435;SDS011;42335;44.872;20.658;2023-08-24T10:33:21;19.55;;;6.38;;
56435;SDS011;42335;44.872;20.658;2023-08-24T10:35:48;13.90;;;6.30;;
56435;SDS011;42335;44.872;20.658;2023-08-24T10:38:47;12.25;;;5.88;;
56435;SDS011;42335;44.872;20.658;2023-08-24T10:41:09;10.73;;;5.45;;
56435;SDS011;42335;44.872;20.658;2023-08-24T10:43:39;6.88;;;5.45;;
56435;SDS011;42335;44.872;20.658;2023-08-24T10:46:14;13.38;;;5.65;;
56435;SDS011;42335;44.872;20.658;2023-08-24T10:56:38;13.93;;;6.25;;
56435;SDS011;42335;44.872;20.658;2023-08-24T10:59:17;8.57;;;5.75;;
56435;SDS011;42335;44.872;20.658;2023-08-24T11:04:10;10.00;;;5.57;;
56435;SDS011;42335;44.872;20.658;2023-08-24T11:06:50;10.85;;;5.63;;
56435;SDS011;42335;44.872;20.658;2023-08-24T11:09:17;10.75;;;5.90;;
56435;SDS011;42335;44.872;20.658;2023-08-24T11:11:54;9.93;;;5.68;;
56435;SDS011;42335;44.872;20.658;2023-08-24T11:14:20;9.73;;;6.00;;
56435;SDS011;42335;44.872;20.658;2023-08-24T11:17:16;11.80;;;5.70;;
56435;SDS011;42335;44.872;20.658;2023-08-24T11:19:49;8.70;;;5.75;;
56435;SDS011;42335;44.872;20.658;2023-08-24T11:24:41;6.43;;;5.03;;
56435;SDS011;42335;44.872;20.658;2023-08-24T11:27:08;8.43;;;5.25;;
56435;SDS011;42335;44.872;20.658;2023-08-24T11:29:34;9.98;;;5.05;;
56435;SDS011;42335;44.872;20.658;2023-08-24T11:32:00;9.65;;;5.25;;
56435;SDS011;42335;44.872;20.658;2023-08-24T11:34:26;10.63;;;5.20;;
56435;SDS011;42335;44.872;20.658;2023-08-24T11:36:52;7.13;;;5.38;;
56435;SDS011;42335;44.872;20.658;2023-08-24T11:39:22;12.77;;;5.47;;
56435;SDS011;42335;44.872;20.658;2023-08-24T11:42:02;16.17;;;5.25;;
56435;SDS011;42335;44.872;20.658;2023-08-24T11:44:28;11.77;;;5.80;;
56435;SDS011;42335;44.872;20.658;2023-08-24T11:46:58;11.38;;;6.10;;
56435;SDS011;42335;44.872;20.658;2023-08-24T11:49:24;13.50;;;5.20;;
56435;SDS011;42335;44.872;20.658;2023-08-24T11:51:50;14.07;;;5.80;;
56435;SDS011;42335;44.872;20.658;2023-08-24T11:54:18;13.85;;;9.25;;
56435;SDS011;42335;44.872;20.658;2023-08-24T11:56:45;9.65;;;6.28;;
56435;SDS011;42335;44.872;20.658;2023-08-24T11:59:17;12.52;;;5.65;;
56435;SDS011;42335;44.872;20.658;2023-08-24T12:01:43;9.30;;;5.17;;
56435;SDS011;42335;44.872;20.658;2023-08-24T12:04:11;9.57;;;5.38;;
56435;SDS011;42335;44.872;20.658;2023-08-24T12:06:37;19.73;;;5.68;;
56435;SDS011;42335;44.872;20.658;2023-08-24T12:09:05;8.48;;;5.57;;
56435;SDS011;42335;44.872;20.658;2023-08-24T12:11:34;8.10;;;5.60;;
56435;SDS011;42335;44.872;20.658;2023-08-24T12:14:01;9.75;;;5.05;;
56435;SDS011;42335;44.872;20.658;2023-08-24T12:16:27;10.90;;;5.25;;
56435;SDS011;42335;44.872;20.658;2023-08-24T12:18:57;12.60;;;5.28;;
56435;SDS011;42335;44.872;20.658;2023-08-24T12:21:30;11.38;;;5.57;;
56435;SDS011;42335;44.872;20.658;2023-08-24T12:23:57;14.23;;;5.10;;
56435;SDS011;42335;44.872;20.658;2023-08-24T12:26:23;8.18;;;5.18;;
56435;SDS011;42335;44.872;20.658;2023-08-24T12:28:50;13.48;;;5.45;;
56435;SDS011;42335;44.872;20.658;2023-08-24T12:31:17;7.30;;;4.90;;
56435;SDS011;42335;44.872;20.658;2023-08-24T12:33:43;7.65;;;5.68;;
56435;SDS011;42335;44.872;20.658;2023-08-24T12:36:10;9.95;;;4.63;;
56435;SDS011;42335;44.872;20.658;2023-08-24T12:38:36;8.27;;;4.50;;
56435;SDS011;42335;44.872;20.658;2023-08-24T12:41:03;10.02;;;4.20;;
56435;SDS011;42335;44.872;20.658;2023-08-24T12:43:29;9.15;;;4.60;;
56435;SDS011;42335;44.872;20.658;2023-08-24T12:45:55;12.13;;;4.97;;
56435;SDS011;42335;44.872;20.658;2023-08-24T12:48:21;6.78;;;4.78;;
56435;SDS011;42335;44.872;20.658;2023-08-24T12:50:47;5.63;;;4.47;;
56435;SDS011;42335;44.872;20.658;2023-08-24T12:53:13;11.30;;;4.30;;
56435;SDS011;42335;44.872;20.658;2023-08-24T12:55:39;8.27;;;4.60;;
56435;SDS011;42335;44.872;20.658;2023-08-24T12:58:06;7.63;;;4.35;;
56435;SDS011;42335;44.872;20.658;2023-08-24T13:00:32;7.72;;;4.63;;
56435;SDS011;42335;44.872;20.658;2023-08-24T13:02:58;10.15;;;4.57;;
56435;SDS011;42335;44.872;20.658;2023-08-24T13:05:24;7.45;;;4.90;;
56435;SDS011;42335;44.872;20.658;2023-08-24T13:07:50;7.55;;;4.57;;
56435;SDS011;42335;44.872;20.658;2023-08-24T13:10:16;19.80;;;4.55;;
56435;SDS011;42335;44.872;20.658;2023-08-24T13:12:42;8.05;;;4.05;;
56435;SDS011;42335;44.872;20.658;2023-08-24T13:15:09;7.00;;;4.63;;
56435;SDS011;42335;44.872;20.658;2023-08-24T13:17:36;7.70;;;4.53;;
56435;SDS011;42335;44.872;20.658;2023-08-24T13:20:03;7.10;;;4.38;;
56435;SDS011;42335;44.872;20.658;2023-08-24T13:22:29;7.72;;;4.50;;
56435;SDS011;42335;44.872;20.658;2023-08-24T13:24:55;9.82;;;4.35;;
56435;SDS011;42335;44.872;20.658;2023-08-24T13:27:22;5.22;;;4.18;;
56435;SDS011;42335;44.872;20.658;2023-08-24T13:29:48;9.88;;;4.88;;
56435;SDS011;42335;44.872;20.658;2023-08-24T13:32:14;9.98;;;5.47;;
56435;SDS011;42335;44.872;20.658;2023-08-24T13:34:40;9.60;;;4.78;;
56435;SDS011;42335;44.872;20.658;2023-08-24T13:37:06;10.77;;;5.32;;
56435;SDS011;42335;44.872;20.658;2023-08-24T13:39:32;15.23;;;5.40;;
56435;SDS011;42335;44.872;20.658;2023-08-24T13:41:59;10.88;;;4.30;;
56435;SDS011;42335;44.872;20.658;2023-08-24T13:44:25;9.60;;;4.32;;
56435;SDS011;42335;44.872;20.658;2023-08-24T13:46:51;6.40;;;3.90;;
56435;SDS011;42335;44.872;20.658;2023-08-24T13:49:18;8.63;;;4.28;;
56435;SDS011;42335;44.872;20.658;2023-08-24T13:51:44;7.82;;;4.60;;
56435;SDS011;42335;44.872;20.658;2023-08-24T13:54:17;7.18;;;5.00;;
56435;SDS011;42335;44.872;20.658;2023-08-24T13:56:44;13.15;;;4.70;;
56435;SDS011;42335;44.872;20.658;2023-08-24T13:59:10;7.50;;;4.53;;
56435;SDS011;42335;44.872;20.658;2023-08-24T14:01:36;6.47;;;4.53;;
56435;SDS011;42335;44.872;20.658;2023-08-24T14:04:05;7.25;;;4.38;;
56435;SDS011;42335;44.872;20.658;2023-08-24T14:06:31;4.35;;;3.88;;
56435;SDS011;42335;44.872;20.658;2023-08-24T14:08:59;11.68;;;4.40;;
56435;SDS011;42335;44.872;20.658;2023-08-24T14:11:27;6.15;;;4.13;;
56435;SDS011;42335;44.872;20.658;2023-08-24T14:13:53;6.20;;;4.38;;
56435;SDS011;42335;44.872;20.658;2023-08-24T14:16:19;8.40;;;4.53;;
56435;SDS011;42335;44.872;20.658;2023-08-24T14:18:45;9.57;;;4.50;;
56435;SDS011;42335;44.872;20.658;2023-08-24T14:21:12;9.60;;;4.43;;
56435;SDS011;42335;44.872;20.658;2023-08-24T14:23:38;7.82;;;4.10;;
56435;SDS011;42335;44.872;20.658;2023-08-24T14:26:05;8.57;;;4.57;;
56435;SDS011;42335;44.872;20.658;2023-08-24T14:28:47;9.68;;;4.80;;
56435;SDS011;42335;44.872;20.658;2023-08-24T14:31:14;8.77;;;4.72;;
56435;SDS011;42335;44.872;20.658;2023-08-24T14:33:40;16.23;;;4.13;;
56435;SDS011;42335;44.872;20.658;2023-08-24T14:36:06;12.63;;;4.32;;